Center Grove, Arkansas
Current Conditions -  °F | °C
As of 8:53 PM on Tuesday 21 Oct 2014 (Local Time) from KPBF Reporting Station
Clear Clear  
Wind Chill: 62°   Ceiling: Unl
Heat Index: 62°   Visibility: 10mi
Dew Point: 53°   Wind: 3mph
Humidity: 72%   Direction: 50°NE
Pressure: 30.07"   Gusts: NA
Location:  34.3151°N, 92.3357°W
Report Text: KPBF 220153Z AUTO 05003KT 10SM CLR 17/12 A3007 RMK AO2 SLP183 T01670117
Loading
Personal Weather Stations






























Interactive Weather Map
Tropical Storm Tracking
New forecast layout! Learn more

10-Day Weather Forecast

Advertisements
Track Severe Weather on mobile